Time;durP1;ratioP1;P1;durP2;ratioP2;P2;SDS_P1;SDS_P2;PMS_P1;PMS_P2;Temp;Humidity;BMP_temperature;BMP_pressure;BME280_temperature;BME280_humidity;BME280_pressure;Samples;Min_cycle;Max_cycle;Signal;HPM_P1;HPM_P2
2022/08/19 00:01:20;;;;;;;1999.90;999.90;;;13.70;99.90;;;;;;5059033;28;20516;-74
2022/08/19 00:03:46;;;;;;;1999.90;999.90;;;13.70;99.90;;;;;;5079684;28;20040;-75
2022/08/19 00:06:13;;;;;;;1999.90;999.90;;;13.70;99.90;;;;;;5057848;28;20114;-75
2022/08/19 00:08:39;;;;;;;1999.90;999.90;;;13.70;99.90;;;;;;5036576;28;20044;-74
2022/08/19 00:11:05;;;;;;;1999.90;999.90;;;13.70;99.90;;;;;;5060215;28;20041;-75
2022/08/19 00:13:30;;;;;;;1999.90;999.90;;;13.70;99.90;;;;;;5058078;28;20459;-75
2022/08/19 00:15:58;;;;;;;1999.90;999.90;;;13.70;99.90;;;;;;5059232;28;20037;-75
2022/08/19 00:18:24;;;;;;;1999.90;999.90;;;13.70;99.90;;;;;;5060605;28;20404;-74
2022/08/19 00:20:49;;;;;;;1999.90;999.90;;;13.70;99.90;;;;;;5056195;28;20048;-75
2022/08/19 00:23:15;;;;;;;1999.90;999.90;;;13.70;99.90;;;;;;5052254;28;20044;-75
2022/08/19 00:25:41;;;;;;;1999.90;999.90;;;13.70;99.90;;;;;;5066520;28;20056;-75
2022/08/19 00:28:07;;;;;;;1999.90;999.90;;;13.70;99.90;;;;;;5064003;28;20066;-75
2022/08/19 00:30:32;;;;;;;1999.90;999.90;;;13.70;99.90;;;;;;5063372;28;20497;-74
2022/08/19 00:32:59;;;;;;;1999.90;999.90;;;13.70;99.90;;;;;;5045903;28;20399;-75
2022/08/19 00:35:27;;;;;;;1999.90;999.90;;;13.70;99.90;;;;;;5057771;28;20152;-74
2022/08/19 00:37:53;;;;;;;1999.90;999.90;;;13.60;99.90;;;;;;5049256;28;20048;-74
2022/08/19 00:40:20;;;;;;;1999.90;999.90;;;13.60;99.90;;;;;;5061284;28;20139;-74
2022/08/19 00:42:46;;;;;;;1999.90;999.90;;;13.60;99.90;;;;;;5045951;28;20438;-75
2022/08/19 00:45:18;;;;;;;1999.90;999.90;;;13.60;99.90;;;;;;5047249;28;20363;-75
2022/08/19 00:47:45;;;;;;;1999.90;999.90;;;13.60;99.90;;;;;;5045212;28;20041;-75
2022/08/19 00:50:14;;;;;;;1999.90;999.90;;;13.50;99.90;;;;;;5068674;28;20044;-75
2022/08/19 00:52:45;;;;;;;1999.90;999.90;;;13.50;99.90;;;;;;5063479;28;20428;-74
2022/08/19 00:55:18;;;;;;;1999.90;999.90;;;13.40;99.90;;;;;;5068522;28;20040;-74
2022/08/19 00:57:50;;;;;;;1999.90;999.90;;;13.40;99.90;;;;;;5051380;28;20053;-74
2022/08/19 01:00:18;;;;;;;1999.90;999.90;;;13.40;99.90;;;;;;5049208;28;20047;-74
2022/08/19 01:02:44;;;;;;;1999.90;999.90;;;13.40;99.90;;;;;;5068240;28;20048;-75
2022/08/19 01:05:15;;;;;;;1999.90;999.90;;;13.30;99.90;;;;;;5061801;28;20516;-74
2022/08/19 01:07:41;;;;;;;1999.90;999.90;;;13.30;99.90;;;;;;5043355;28;20087;-74
2022/08/19 01:10:11;;;;;;;1999.90;999.90;;;13.30;99.90;;;;;;5051837;28;20047;-74
2022/08/19 01:12:38;;;;;;;1999.90;999.90;;;13.30;99.90;;;;;;5046512;28;20397;-75
2022/08/19 01:15:07;;;;;;;1999.90;999.90;;;13.20;99.90;;;;;;5045663;28;20127;-75
2022/08/19 01:17:33;;;;;;;1999.90;999.90;;;13.20;99.90;;;;;;5062353;28;20595;-74
2022/08/19 01:19:59;;;;;;;1999.90;999.90;;;13.10;99.90;;;;;;5061631;28;20051;-74
2022/08/19 01:22:42;;;;;;;1999.90;999.90;;;13.10;99.90;;;;;;5045416;28;20041;-75
2022/08/19 01:25:08;;;;;;;1999.90;999.90;;;13.10;99.90;;;;;;5067856;28;20538;-75
2022/08/19 01:27:39;;;;;;;1999.90;999.90;;;13.00;99.90;;;;;;5068172;28;20425;-75
2022/08/19 01:30:06;;;;;;;1999.90;999.90;;;13.00;99.90;;;;;;5060769;28;20104;-75
2022/08/19 01:32:32;;;;;;;1999.90;999.90;;;13.00;99.90;;;;;;5062656;28;20036;-74
2022/08/19 01:34:57;;;;;;;1999.90;999.90;;;12.90;99.90;;;;;;5049830;28;20464;-74
2022/08/19 01:37:23;;;;;;;1999.90;999.90;;;12.90;99.90;;;;;;5063332;28;20041;-74
2022/08/19 01:39:49;;;;;;;1999.90;999.90;;;12.90;99.90;;;;;;5067864;28;20064;-75
2022/08/19 01:42:15;;;;;;;1999.90;999.90;;;12.80;99.90;;;;;;5061155;28;20045;-74
2022/08/19 01:44:41;;;;;;;1999.90;999.90;;;12.80;99.90;;;;;;5035284;28;20059;-75
2022/08/19 01:47:09;;;;;;;1999.90;999.90;;;12.80;99.90;;;;;;5064657;28;20033;-74
2022/08/19 01:49:35;;;;;;;1999.90;999.90;;;12.70;99.90;;;;;;5061586;28;20103;-74
2022/08/19 01:52:03;;;;;;;1999.90;999.90;;;12.70;99.90;;;;;;5049463;28;20044;-74
2022/08/19 01:54:29;;;;;;;1999.90;999.90;;;12.70;99.90;;;;;;5064676;28;20052;-75
2022/08/19 01:57:11;;;;;;;1999.90;999.90;;;12.60;99.90;;;;;;5063831;28;20040;-75
2022/08/19 01:59:39;;;;;;;1999.90;999.90;;;12.70;99.90;;;;;;5051039;28;20408;-74
2022/08/19 02:02:08;;;;;;;1999.90;999.90;;;12.70;99.90;;;;;;5067677;28;20088;-74
2022/08/19 02:04:35;;;;;;;1999.90;999.90;;;12.60;99.90;;;;;;5042501;28;20036;-75
2022/08/19 02:07:01;;;;;;;1999.90;999.90;;;12.60;99.90;;;;;;5048843;28;20037;-74
2022/08/19 02:09:27;;;;;;;1999.90;999.90;;;12.60;99.90;;;;;;5057474;28;20047;-75
2022/08/19 02:11:53;;;;;;;1999.90;999.90;;;12.60;99.90;;;;;;5037957;28;20029;-74
2022/08/19 02:14:18;;;;;;;1999.90;999.90;;;12.50;99.90;;;;;;5080887;28;20033;-75
2022/08/19 02:16:44;;;;;;;1999.90;999.90;;;12.50;99.90;;;;;;5054924;28;20110;-74
2022/08/19 02:19:10;;;;;;;1999.90;999.90;;;12.50;99.90;;;;;;5063752;28;20079;-75
2022/08/19 02:21:36;;;;;;;1999.90;999.90;;;12.50;99.90;;;;;;5053283;28;20056;-74
2022/08/19 02:24:03;;;;;;;1999.90;999.90;;;12.50;99.90;;;;;;5049801;28;20127;-75
2022/08/19 02:26:28;;;;;;;1999.90;999.90;;;12.50;99.90;;;;;;5047902;28;20056;-74
2022/08/19 02:28:55;;;;;;;1999.90;999.90;;;12.50;99.90;;;;;;5046581;28;20097;-75
2022/08/19 02:31:22;;;;;;;1999.90;999.90;;;12.50;99.90;;;;;;5061438;28;20405;-75
2022/08/19 02:33:48;;;;;;;1999.90;999.90;;;12.40;99.90;;;;;;5056973;28;20041;-75
2022/08/19 02:36:16;;;;;;;1999.90;999.90;;;12.40;99.90;;;;;;5055841;28;20420;-75
2022/08/19 02:38:43;;;;;;;1999.90;999.90;;;12.40;99.90;;;;;;5068188;28;20443;-74
2022/08/19 02:41:28;;;;;;;1999.90;999.90;;;12.40;99.90;;;;;;5064433;28;20083;-75
2022/08/19 02:43:56;;;;;;;1999.90;999.90;;;12.50;99.90;;;;;;5066267;28;20407;-74
2022/08/19 02:46:26;;;;;;;1999.90;999.90;;;12.50;99.90;;;;;;5068982;28;20041;-74
2022/08/19 02:48:55;;;;;;;1999.90;999.90;;;12.50;99.90;;;;;;5054309;28;20037;-75
2022/08/19 02:51:27;;;;;;;1999.90;999.90;;;12.50;99.90;;;;;;5059309;28;20049;-75
2022/08/19 02:53:54;;;;;;;1999.90;999.90;;;12.40;99.90;;;;;;5058329;28;20120;-74
2022/08/19 02:56:20;;;;;;;1999.90;999.90;;;12.40;99.90;;;;;;5047113;28;20048;-75
2022/08/19 02:58:47;;;;;;;1999.90;999.90;;;12.40;99.90;;;;;;5064276;28;20047;-75
2022/08/19 03:01:21;;;;;;;1999.90;999.90;;;12.40;99.90;;;;;;5049945;28;20033;-74
2022/08/19 03:03:47;;;;;;;1999.90;999.90;;;12.40;99.90;;;;;;5044901;28;20044;-75
2022/08/19 03:06:15;;;;;;;1999.90;999.90;;;12.40;99.90;;;;;;5097532;28;20562;-74
2022/08/19 03:08:43;;;;;;;1999.90;999.90;;;12.50;99.90;;;;;;5050535;28;20036;-75
2022/08/19 03:11:14;;;;;;;1999.90;999.90;;;12.50;99.90;;;;;;5068716;28;20048;-74
2022/08/19 03:13:40;;;;;;;1999.90;999.90;;;12.40;99.90;;;;;;5079794;28;20041;-75
2022/08/19 03:16:06;;;;;;;1999.90;999.90;;;12.40;99.90;;;;;;5081324;28;20086;-75
2022/08/19 03:18:31;;;;;;;1999.90;999.90;;;12.30;99.90;;;;;;5048922;28;20090;-75
2022/08/19 03:20:57;;;;;;;1999.90;999.90;;;12.30;99.90;;;;;;5054996;28;20051;-75
2022/08/19 03:23:23;;;;;;;1999.90;999.90;;;12.30;99.90;;;;;;5056661;28;20076;-75
2022/08/19 03:25:53;;;;;;;1999.90;999.90;;;12.30;99.90;;;;;;5065267;28;20084;-75
2022/08/19 03:28:19;;;;;;;1999.90;999.90;;;12.30;99.90;;;;;;5067398;28;20116;-75
2022/08/19 03:30:57;;;;;;;1999.90;999.90;;;12.30;99.90;;;;;;5048941;28;20056;-74
2022/08/19 03:33:23;;;;;;;1999.90;999.90;;;12.40;99.90;;;;;;5091494;28;20058;-75
2022/08/19 03:36:01;;;;;;;1999.90;999.90;;;12.40;99.90;;;;;;5052945;28;20041;-75
2022/08/19 03:38:26;;;;;;;1999.90;999.90;;;12.40;99.90;;;;;;5047660;28;20131;-74
2022/08/19 03:40:52;;;;;;;1999.90;999.90;;;12.40;99.90;;;;;;5061370;28;20131;-75
2022/08/19 03:43:18;;;;;;;1999.90;999.90;;;12.40;99.90;;;;;;5067778;28;20059;-75
2022/08/19 03:45:43;;;;;;;1999.90;999.90;;;12.40;99.90;;;;;;5053455;28;20493;-74
2022/08/19 03:48:09;;;;;;;1999.90;999.90;;;12.30;99.90;;;;;;5064836;28;20512;-74
2022/08/19 03:50:39;;;;;;;1999.90;999.90;;;12.30;99.90;;;;;;5084456;28;20039;-75
2022/08/19 03:53:06;;;;;;;1999.90;999.90;;;12.20;99.90;;;;;;5043574;28;20055;-74
2022/08/19 03:55:31;;;;;;;1999.90;999.90;;;12.30;99.90;;;;;;5070231;28;20480;-75
2022/08/19 03:57:57;;;;;;;1999.90;999.90;;;12.30;99.90;;;;;;5050887;28;20068;-75
2022/08/19 04:00:22;;;;;;;1999.90;999.90;;;12.30;99.90;;;;;;5068953;28;20451;-75
2022/08/19 04:02:48;;;;;;;1999.90;999.90;;;12.30;99.90;;;;;;5048709;28;20095;-74
2022/08/19 04:05:14;;;;;;;1999.90;999.90;;;12.30;99.90;;;;;;5062076;28;20048;-75
2022/08/19 04:07:40;;;;;;;1999.90;999.90;;;12.30;99.90;;;;;;5046328;28;20037;-74
2022/08/19 04:10:06;;;;;;;1999.90;999.90;;;12.30;99.90;;;;;;5069785;28;20459;-75
2022/08/19 04:12:32;;;;;;;1999.90;999.90;;;12.30;99.90;;;;;;5060204;28;20043;-74
2022/08/19 04:14:58;;;;;;;1999.90;999.90;;;12.30;99.90;;;;;;5069325;28;20051;-75
2022/08/19 04:17:24;;;;;;;1999.90;999.90;;;12.30;99.90;;;;;;5069785;28;20040;-75
2022/08/19 04:19:49;;;;;;;1999.90;999.90;;;12.30;99.90;;;;;;5051993;28;20056;-75
2022/08/19 04:22:15;;;;;;;1999.90;999.90;;;12.20;99.90;;;;;;5062826;28;20033;-75
2022/08/19 04:24:41;;;;;;;1999.90;999.90;;;12.20;99.90;;;;;;5069105;28;20036;-75
2022/08/19 04:27:06;;;;;;;1999.90;999.90;;;12.20;99.90;;;;;;5052582;28;20040;-75
2022/08/19 04:29:32;;;;;;;1999.90;999.90;;;12.20;99.90;;;;;;5063661;28;20029;-75
2022/08/19 04:31:59;;;;;;;1999.90;999.90;;;12.10;99.90;;;;;;5051200;28;20072;-74
2022/08/19 04:34:27;;;;;;;1999.90;999.90;;;12.10;99.90;;;;;;5048135;28;20052;-75
2022/08/19 04:36:55;;;;;;;1999.90;999.90;;;12.10;99.90;;;;;;5065308;28;22050;-75
2022/08/19 04:42:38;;;;;;;1999.90;999.90;;;12.10;99.90;;;;;;5061227;28;20058;-75
2022/08/19 04:45:00;;;;;;;1999.90;999.90;;;12.20;99.90;;;;;;5066537;28;20644;-75
2022/08/19 04:47:26;;;;;;;1999.90;999.90;;;12.20;99.90;;;;;;5065101;28;20118;-75
2022/08/19 04:49:52;;;;;;;1999.90;999.90;;;12.20;99.90;;;;;;5052302;28;20508;-74
2022/08/19 04:52:17;;;;;;;1999.90;999.90;;;12.20;99.90;;;;;;5051171;28;20040;-74
2022/08/19 04:54:43;;;;;;;1999.90;999.90;;;12.30;99.90;;;;;;5058819;28;20055;-75
2022/08/19 04:57:09;;;;;;;1999.90;999.90;;;12.30;99.90;;;;;;5052782;28;20048;-75
2022/08/19 04:59:36;;;;;;;1999.90;999.90;;;12.30;99.90;;;;;;5062878;28;20066;-74
2022/08/19 05:02:03;;;;;;;1999.90;999.90;;;12.30;99.90;;;;;;5038481;28;20342;-75
2022/08/19 05:04:30;;;;;;;1999.90;999.90;;;12.40;99.90;;;;;;5042861;28;20119;-75
2022/08/19 05:06:55;;;;;;;1999.90;999.90;;;12.50;99.90;;;;;;5059289;28;20040;-75
2022/08/19 05:09:21;;;;;;;1999.90;999.90;;;12.60;99.90;;;;;;5045742;28;20120;-75
2022/08/19 05:11:47;;;;;;;1999.90;999.90;;;12.60;99.90;;;;;;5059675;28;20040;-75
2022/08/19 05:14:13;;;;;;;1999.90;999.90;;;12.70;99.90;;;;;;5060930;28;20432;-75
2022/08/19 05:16:40;;;;;;;1999.90;999.90;;;12.70;99.90;;;;;;5064746;28;20048;-75
2022/08/19 05:24:34;;;;;;;1999.90;999.90;;;13.00;99.90;;;;;;5058152;28;20237;-75
2022/08/19 05:27:02;;;;;;;1999.90;999.90;;;13.00;99.90;;;;;;5066897;28;20048;-75
2022/08/19 05:29:29;;;;;;;1999.90;999.90;;;13.20;99.90;;;;;;5047481;28;20051;-75
2022/08/19 05:31:55;;;;;;;1999.90;999.90;;;13.30;99.90;;;;;;5067351;28;20036;-75
2022/08/19 05:34:25;;;;;;;1999.90;999.90;;;13.50;99.90;;;;;;5050063;28;20036;-75
2022/08/19 05:36:57;;;;;;;1999.90;999.90;;;13.60;99.90;;;;;;5061610;28;20075;-75
2022/08/19 05:39:25;;;;;;;1999.90;999.90;;;13.80;99.90;;;;;;5068046;28;20491;-75
2022/08/19 05:41:57;;;;;;;1999.90;999.90;;;14.10;99.90;;;;;;5056673;28;20141;-75
2022/08/19 05:44:25;;;;;;;1999.90;999.90;;;14.40;99.90;;;;;;5043472;28;20063;-75
2022/08/19 05:46:54;;;;;;;1999.90;999.90;;;14.50;99.90;;;;;;5051840;28;20455;-75
2022/08/19 05:49:22;;;;;;;1999.90;999.90;;;14.60;99.90;;;;;;5041518;28;20712;-75
2022/08/19 05:51:49;;;;;;;1999.90;999.90;;;14.60;99.90;;;;;;5036265;28;20511;-75
2022/08/19 05:54:15;;;;;;;1999.90;999.90;;;14.60;99.90;;;;;;5055156;28;20044;-75
2022/08/19 05:56:42;;;;;;;1999.90;999.90;;;14.70;99.90;;;;;;5054950;28;20044;-75
2022/08/19 05:59:10;;;;;;;1999.90;999.90;;;14.80;99.90;;;;;;5052520;28;20029;-74
2022/08/19 06:01:42;;;;;;;1999.90;999.90;;;14.90;99.90;;;;;;5044573;28;20047;-75
2022/08/19 06:04:08;;;;;;;1999.90;999.90;;;15.00;99.90;;;;;;5038339;28;20187;-75
2022/08/19 06:06:36;;;;;;;1999.90;999.90;;;15.10;99.90;;;;;;5052001;28;20612;-75
2022/08/19 06:09:07;;;;;;;1999.90;999.90;;;15.30;99.90;;;;;;5052018;28;20045;-74
2022/08/19 06:11:38;;;;;;;1999.90;999.90;;;15.30;99.90;;;;;;5052935;28;20086;-75
2022/08/19 06:14:11;;;;;;;1999.90;999.90;;;15.40;99.90;;;;;;5053402;28;20374;-75
2022/08/19 06:16:39;;;;;;;1999.90;999.90;;;15.60;99.90;;;;;;5034875;28;20036;-75
2022/08/19 06:19:10;;;;;;;1999.90;999.90;;;15.80;99.90;;;;;;5054166;28;20063;-75
2022/08/19 06:21:38;;;;;;;1999.90;999.90;;;16.00;99.90;;;;;;5054129;28;20098;-75
2022/08/19 06:24:09;;;;;;;1999.90;999.90;;;16.20;99.90;;;;;;5070260;28;20037;-75
2022/08/19 06:26:37;;;;;;;1999.90;999.90;;;16.30;99.90;;;;;;5069224;28;20044;-75
2022/08/19 06:29:06;;;;;;;1999.90;999.90;;;16.30;99.90;;;;;;5039395;28;20041;-74
2022/08/19 06:31:33;;;;;;;1999.90;999.90;;;16.50;99.90;;;;;;5052471;28;20044;-75
2022/08/19 06:34:02;;;;;;;1999.90;999.90;;;16.50;99.90;;;;;;5059161;28;20052;-75
2022/08/19 06:36:41;;;;;;;1999.90;999.90;;;16.60;99.90;;;;;;5051156;28;20048;-75
2022/08/19 06:39:20;;;;;;;1999.90;999.90;;;16.70;99.90;;;;;;5039936;28;20150;-75
2022/08/19 06:41:48;;;;;;;1999.90;999.90;;;16.70;99.90;;;;;;5044681;28;20489;-75
2022/08/19 06:44:15;;;;;;;1999.90;999.90;;;16.90;99.90;;;;;;5040425;28;20044;-75
2022/08/19 06:46:41;;;;;;;1999.90;999.90;;;17.00;99.90;;;;;;5060558;28;20552;-75
2022/08/19 06:49:09;;;;;;;1999.90;999.90;;;17.10;99.90;;;;;;5038644;28;20102;-75
2022/08/19 06:51:35;;;;;;;1999.90;999.90;;;17.20;99.90;;;;;;5037812;28;20033;-75
2022/08/19 06:54:01;;;;;;;1999.90;999.90;;;17.40;99.90;;;;;;5041341;28;20421;-75
2022/08/19 06:56:31;;;;;;;1999.90;999.90;;;17.60;99.90;;;;;;5055801;28;20048;-75
2022/08/19 06:58:57;;;;;;;1999.90;999.90;;;18.20;99.90;;;;;;5083569;28;20143;-75
2022/08/19 07:01:23;;;;;;;1999.90;999.90;;;18.60;99.90;;;;;;5037587;28;20684;-75
2022/08/19 07:03:49;;;;;;;1999.90;999.90;;;18.80;99.90;;;;;;5049179;28;20076;-76
2022/08/19 07:06:17;;;;;;;1999.90;999.90;;;19.40;99.90;;;;;;5069854;28;20044;-75
2022/08/19 07:08:46;;;;;;;1999.90;999.90;;;19.50;99.90;;;;;;5056928;28;20162;-75
2022/08/19 07:11:14;;;;;;;1999.90;999.90;;;19.40;99.90;;;;;;5074065;28;20041;-75
2022/08/19 07:13:43;;;;;;;1999.90;999.90;;;19.30;99.90;;;;;;5037625;28;20037;-75
2022/08/19 07:16:15;;;;;;;1999.90;999.90;;;19.20;99.90;;;;;;5050508;28;20582;-75
2022/08/19 07:18:41;;;;;;;1999.90;999.90;;;19.20;99.90;;;;;;5061788;28;20489;-75
2022/08/19 07:21:10;;;;;;;1999.90;999.90;;;19.20;99.90;;;;;;5055628;28;20064;-75
2022/08/19 07:23:36;;;;;;;1999.90;999.90;;;19.20;99.90;;;;;;5056566;28;20105;-75
2022/08/19 07:26:11;;;;;;;1999.90;999.90;;;19.20;99.90;;;;;;5049291;28;20032;-75
2022/08/19 07:28:38;;;;;;;1999.90;999.90;;;19.30;99.90;;;;;;5051774;28;20394;-76
2022/08/19 07:31:06;;;;;;;1999.90;999.90;;;19.30;99.90;;;;;;5049667;28;20040;-76
2022/08/19 07:33:32;;;;;;;1999.90;999.90;;;19.40;99.90;;;;;;5048861;28;20087;-76
2022/08/19 07:35:58;;;;;;;1999.90;999.90;;;19.40;99.90;;;;;;5037278;28;20045;-75
2022/08/19 07:38:24;;;;;;;1999.90;999.90;;;19.50;99.90;;;;;;5047284;28;20056;-75
2022/08/19 07:40:51;;;;;;;1999.90;999.90;;;19.60;99.90;;;;;;5052489;28;20428;-75
2022/08/19 07:43:24;;;;;;;1999.90;999.90;;;19.70;99.90;;;;;;5054691;28;20033;-76
2022/08/19 07:45:56;;;;;;;1999.90;999.90;;;19.70;99.90;;;;;;5048045;28;20045;-76
2022/08/19 07:48:25;;;;;;;1999.90;999.90;;;19.80;99.90;;;;;;5056237;28;20036;-76
2022/08/19 07:50:52;;;;;;;1999.90;999.90;;;19.90;99.90;;;;;;5047590;28;20025;-76
2022/08/19 07:53:19;;;;;;;1999.90;999.90;;;20.00;99.90;;;;;;5081446;28;20047;-76
2022/08/19 07:55:44;;;;;;;1999.90;999.90;;;20.00;99.90;;;;;;5068548;28;20089;-75
2022/08/19 07:58:16;;;;;;;1999.90;999.90;;;20.10;99.90;;;;;;5069660;28;20040;-76
2022/08/19 08:00:43;;;;;;;1999.90;999.90;;;20.20;99.90;;;;;;5055452;28;20099;-76
2022/08/19 08:03:09;;;;;;;1999.90;999.90;;;20.30;99.90;;;;;;5053087;28;20458;-76
2022/08/19 08:11:05;;;;;;;1999.90;999.90;;;20.60;99.90;;;;;;5069520;28;20036;-76
2022/08/19 08:13:34;;;;;;;1999.90;999.90;;;20.70;99.90;;;;;;5059060;28;20045;-76
2022/08/19 08:16:01;;;;;;;1999.90;999.90;;;20.80;99.90;;;;;;5062634;28;20048;-76
2022/08/19 08:18:27;;;;;;;1999.90;999.90;;;20.90;99.90;;;;;;5069688;28;20397;-76
2022/08/19 08:20:52;;;;;;;1999.90;999.90;;;21.00;99.90;;;;;;5043078;28;20043;-76
2022/08/19 08:23:25;;;;;;;1999.90;999.90;;;21.10;99.90;;;;;;5050084;28;20044;-76
2022/08/19 08:25:53;;;;;;;1999.90;999.90;;;21.20;99.90;;;;;;5052711;28;20090;-76
2022/08/19 08:28:19;;;;;;;1999.90;999.90;;;21.30;99.90;;;;;;5062230;28;20119;-77
2022/08/19 08:30:47;;;;;;;1999.90;999.90;;;21.50;99.90;;;;;;5069662;28;20040;-76
2022/08/19 08:33:16;;;;;;;1999.90;999.90;;;21.60;99.90;;;;;;5048633;28;20055;-76
2022/08/19 08:35:42;;;;;;;1999.90;999.90;;;21.80;99.90;;;;;;5052517;28;20040;-76
2022/08/19 08:38:08;;;;;;;1999.90;999.90;;;21.80;99.90;;;;;;5047794;28;20098;-76
2022/08/19 08:40:39;;;;;;;1999.90;999.90;;;21.80;99.90;;;;;;5068746;28;20119;-76
2022/08/19 08:43:28;;;;;;;1999.90;999.90;;;21.90;99.90;;;;;;5069725;28;20381;-76
2022/08/19 08:46:01;;;;;;;1999.90;999.90;;;22.00;99.90;;;;;;5063402;28;20041;-76
2022/08/19 08:49:08;;;;;;;1999.90;999.90;;;22.20;99.90;;;;;;5069230;28;20043;-76
2022/08/19 08:51:41;;;;;;;1999.90;999.90;;;22.40;99.90;;;;;;5073801;28;20041;-76
2022/08/19 08:54:11;;;;;;;1999.90;999.90;;;23.20;99.90;;;;;;5050732;28;20144;-76
2022/08/19 08:56:44;;;;;;;1999.90;999.90;;;24.00;99.90;;;;;;5085889;28;20375;-76
2022/08/19 08:59:21;;;;;;;1999.90;999.90;;;24.70;99.90;;;;;;5066710;28;20085;-76
2022/08/19 09:01:46;;;;;;;1999.90;999.90;;;25.20;99.90;;;;;;5057917;28;20389;-76
2022/08/19 09:04:13;;;;;;;1999.90;999.90;;;25.60;99.90;;;;;;5066049;28;20051;-76
2022/08/19 09:06:59;;;;;;;1999.90;999.90;;;26.10;99.90;;;;;;5068690;28;20522;-76
2022/08/19 09:09:39;;;;;;;1999.90;999.90;;;26.50;99.90;;;;;;5072869;28;20072;-76
2022/08/19 09:12:10;;;;;;;1999.90;999.90;;;26.60;99.90;;;;;;5058189;28;20051;-76
2022/08/19 09:14:49;;;;;;;1999.90;999.90;;;26.80;99.90;;;;;;5042542;28;20047;-76
2022/08/19 09:17:14;;;;;;;1999.90;999.90;;;26.90;99.90;;;;;;5065864;28;20123;-76
2022/08/19 09:20:10;;;;;;;1999.90;999.90;;;26.80;99.90;;;;;;5066468;28;20570;-77
2022/08/19 09:22:40;;;;;;;1999.90;999.90;;;27.00;99.90;;;;;;5049116;28;20052;-76
2022/08/19 09:25:08;;;;;;;1999.90;999.90;;;27.20;99.90;;;;;;5068108;28;20044;-76
2022/08/19 09:27:37;;;;;;;1999.90;999.90;;;27.40;99.90;;;;;;5047960;28;20041;-77
2022/08/19 09:30:04;;;;;;;1999.90;999.90;;;27.60;99.90;;;;;;5064893;28;20037;-77
2022/08/19 09:32:30;;;;;;;1999.90;999.90;;;27.50;99.90;;;;;;5049566;28;20451;-76
2022/08/19 09:34:57;;;;;;;1999.90;999.90;;;27.70;99.90;;;;;;5065507;28;20151;-76
2022/08/19 09:37:24;;;;;;;1999.90;999.90;;;27.70;99.90;;;;;;5068641;28;20048;-76
2022/08/19 09:39:50;;;;;;;1999.90;999.90;;;27.80;99.90;;;;;;5051205;28;20060;-76
2022/08/19 09:42:15;;;;;;;1999.90;999.90;;;27.90;99.90;;;;;;5068181;28;20062;-75
2022/08/19 09:44:42;;;;;;;1999.90;999.90;;;27.90;99.90;;;;;;5066910;28;20613;-76
2022/08/19 09:47:10;;;;;;;1999.90;999.90;;;27.80;99.90;;;;;;5101670;28;20067;-76
2022/08/19 09:49:37;;;;;;;1999.90;999.90;;;27.50;99.90;;;;;;5051321;28;20094;-76
2022/08/19 09:52:03;;;;;;;1999.90;999.90;;;27.40;99.90;;;;;;5066825;28;20037;-76
2022/08/19 09:54:29;;;;;;;1999.90;999.90;;;27.40;99.90;;;;;;5062790;28;20117;-77
2022/08/19 09:56:57;;;;;;;1999.90;999.90;;;27.60;99.90;;;;;;5065770;28;20044;-76
2022/08/19 09:59:23;;;;;;;1999.90;999.90;;;27.70;99.90;;;;;;5067452;28;20111;-76
2022/08/19 10:01:48;;;;;;;1999.90;999.90;;;27.90;99.90;;;;;;5067517;28;20131;-77
2022/08/19 10:04:14;;;;;;;1999.90;999.90;;;28.00;99.90;;;;;;5051223;28;20054;-77
2022/08/19 10:06:42;;;;;;;1999.90;999.90;;;27.90;99.90;;;;;;5044116;28;20048;-76
2022/08/19 10:09:09;;;;;;;1999.90;999.90;;;27.90;99.90;;;;;;5066712;28;20048;-76
2022/08/19 10:11:38;;;;;;;1999.90;999.90;;;27.90;99.90;;;;;;5052106;28;20121;-77
2022/08/19 10:14:07;;;;;;;1999.90;999.90;;;28.00;99.90;;;;;;5058563;28;20090;-76
2022/08/19 10:16:35;;;;;;;1999.90;999.90;;;28.10;99.90;;;;;;5037010;28;20472;-76
2022/08/19 10:19:01;;;;;;;1999.90;999.90;;;28.10;99.90;;;;;;5066926;28;20044;-76
2022/08/19 10:21:32;;;;;;;1999.90;999.90;;;28.00;99.90;;;;;;5062499;28;20062;-77
2022/08/19 10:24:01;;;;;;;1999.90;999.90;;;27.90;99.90;;;;;;5066991;28;20044;-76
2022/08/19 10:26:34;;;;;;;1999.90;999.90;;;27.90;99.90;;;;;;5046831;28;20040;-76
2022/08/19 10:29:00;;;;;;;1999.90;999.90;;;27.80;99.90;;;;;;5067461;28;20186;-77
2022/08/19 10:31:30;;;;;;;1999.90;999.90;;;27.70;99.90;;;;;;5063487;28;20157;-76
2022/08/19 10:33:59;;;;;;;1999.90;999.90;;;27.60;99.90;;;;;;5033758;28;20079;-75
2022/08/19 10:36:32;;;;;;;1999.90;999.90;;;27.60;99.90;;;;;;5041515;28;20094;-77
2022/08/19 10:39:01;;;;;;;1999.90;999.90;;;27.50;99.90;;;;;;5062798;28;20060;-77
2022/08/19 10:41:32;;;;;;;1999.90;999.90;;;27.40;99.90;;;;;;5049237;28;20055;-77
2022/08/19 10:44:04;;;;;;;1999.90;999.90;;;27.30;99.90;;;;;;5049024;28;20048;-77
2022/08/19 10:46:32;;;;;;;1999.90;999.90;;;27.00;99.90;;;;;;5066840;28;20497;-76
2022/08/19 10:48:59;;;;;;;1999.90;999.90;;;27.00;99.90;;;;;;5052922;28;20045;-76
2022/08/19 10:54:09;;;;;;;1999.90;999.90;;;27.50;99.90;;;;;;5057947;28;20040;-76
2022/08/19 10:56:54;;;;;;;1999.90;999.90;;;27.80;99.90;;;;;;5039402;28;20386;-76
2022/08/19 10:59:29;;;;;;;1999.90;999.90;;;27.90;99.90;;;;;;5066399;28;20052;-76
2022/08/19 11:01:59;;;;;;;1999.90;999.90;;;27.70;99.90;;;;;;5060615;28;20040;-76
2022/08/19 11:04:25;;;;;;;1999.90;999.90;;;27.60;99.90;;;;;;5066837;28;20747;-76
2022/08/19 11:06:51;;;;;;;1999.90;999.90;;;27.60;99.90;;;;;;5046087;28;20459;-76
2022/08/19 11:09:25;;;;;;;1999.90;999.90;;;27.80;99.90;;;;;;5050133;28;20127;-77
2022/08/19 11:11:53;;;;;;;1999.90;999.90;;;28.00;99.90;;;;;;5063567;28;20063;-76
2022/08/19 11:14:20;;;;;;;1999.90;999.90;;;27.70;99.90;;;;;;5050164;28;20075;-76
2022/08/19 11:16:47;;;;;;;1999.90;999.90;;;27.40;99.90;;;;;;5043833;28;20048;-76
2022/08/19 11:19:15;;;;;;;1999.90;999.90;;;27.00;99.90;;;;;;5049976;28;20044;-76
2022/08/19 11:21:44;;;;;;;1999.90;999.90;;;26.70;99.90;;;;;;5048379;28;20063;-76
2022/08/19 11:24:28;;;;;;;1999.90;999.90;;;26.40;99.90;;;;;;5039882;28;20037;-76
2022/08/19 11:27:02;;;;;;;1999.90;999.90;;;26.30;99.90;;;;;;5043465;28;20043;-76
2022/08/19 11:29:29;;;;;;;1999.90;999.90;;;26.30;99.90;;;;;;5053059;28;20056;-77
2022/08/19 11:31:54;;;;;;;1999.90;999.90;;;26.40;99.90;;;;;;5068255;28;20040;-76
2022/08/19 11:34:28;;;;;;;1999.90;999.90;;;26.50;99.90;;;;;;5070267;28;20047;-76
2022/08/19 11:36:57;;;;;;;1999.90;999.90;;;26.40;99.90;;;;;;5070175;28;20044;-76
2022/08/19 11:39:24;;;;;;;1999.90;999.90;;;26.40;99.90;;;;;;5043810;28;20099;-76
2022/08/19 11:41:50;;;;;;;1999.90;999.90;;;26.50;99.90;;;;;;5068847;28;20044;-76
2022/08/19 11:44:16;;;;;;;1999.90;999.90;;;26.50;99.90;;;;;;5070559;28;20037;-76
2022/08/19 11:46:47;;;;;;;1999.90;999.90;;;26.30;99.90;;;;;;5065531;28;20127;-76
2022/08/19 11:49:14;;;;;;;1999.90;999.90;;;26.20;99.90;;;;;;5052900;28;20055;-76
2022/08/19 11:51:42;;;;;;;1999.90;999.90;;;26.00;99.90;;;;;;5062565;28;20047;-76
2022/08/19 11:54:09;;;;;;;1999.90;999.90;;;25.90;99.90;;;;;;5051145;28;20434;-76
2022/08/19 11:56:36;;;;;;;1999.90;999.90;;;25.80;99.90;;;;;;5053681;28;20225;-76
2022/08/19 11:59:02;;;;;;;1999.90;999.90;;;25.80;99.90;;;;;;5066493;28;20032;-76
2022/08/19 12:01:28;;;;;;;1999.90;999.90;;;25.90;99.90;;;;;;5068213;28;20040;-75
2022/08/19 12:03:56;;;;;;;1999.90;999.90;;;26.10;99.90;;;;;;5069996;28;20485;-76
2022/08/19 12:06:31;;;;;;;1999.90;999.90;;;26.50;99.90;;;;;;5067930;28;20052;-76
2022/08/19 12:08:59;;;;;;;1999.90;999.90;;;27.00;99.90;;;;;;5047548;28;20037;-76
2022/08/19 12:11:25;;;;;;;1999.90;999.90;;;27.50;99.90;;;;;;5050591;28;20374;-76
2022/08/19 12:13:51;;;;;;;1999.90;999.90;;;27.60;99.90;;;;;;5042074;28;20047;-75
2022/08/19 12:16:20;;;;;;;1999.90;999.90;;;27.50;99.90;;;;;;5066034;28;20122;-75
2022/08/19 12:18:46;;;;;;;1999.90;999.90;;;27.40;99.90;;;;;;5074333;28;20040;-75
2022/08/19 12:21:17;;;;;;;1999.90;999.90;;;27.20;99.90;;;;;;5065989;28;20051;-75